Current Conditions
Partly Cloudy
Conditions



Pressure
1025.92 (hPa) - 30.3 (inHG)
Visibility

6.2 (miles) - 10.0 (km)
   Temperature
9  °C
Temperature
7  °C
Dewpoint
87  %
 Humidity
   Wind Speed
5  mph
4  kts
8  km/h
2.2  m/s
   Wind Direction
N
45°
E
90°
135°
S
180°
225°
W
270°
315°
 280°

Due West
   Airport Data
EGVO
RAF Odiham
Metar :EGVO 251023Z 28004KT 9999 FEW008 BKN045 OVC080 09/07 Q1026 NOSIG RMK BLU BLU
Thu 25th February 10:23 am
   Raw Metar Info
Raw METAR is the most common format in the world for the transmission of observational weather data. It is highly standardized through the International Civil Aviation Organization (ICAO), which allows it to be understood throughout most of the world.
   API Info
Data Provided by
https://www.checkwx.com/weather/EGVO

Aviation Weather providing METAR, TAF, AIRMET, SIGMET and OUTLOOK Weather Reports
   © Info
CSS/SVG/PHP scripts were developed by weather34.com for use in the weather34 template © 2015-2021

Guide Info provided by Metar-Wikipedia